createdAt,value
2017-01-10T00:00:53.374Z,932.11
2017-01-10T00:02:03.824Z,932.2
2017-01-10T00:03:14.250Z,932.15
2017-01-10T00:04:24.679Z,932.17
2017-01-10T00:05:35.307Z,932.23
2017-01-10T00:06:45.761Z,932.29
2017-01-10T00:07:56.188Z,932.32
2017-01-10T00:09:06.613Z,932.27
2017-01-10T00:10:31.588Z,932.27
2017-01-10T00:11:42.015Z,932.28
2017-01-10T00:12:52.438Z,932.23
2017-01-10T00:14:02.864Z,932.25
2017-01-10T00:15:13.290Z,932.32
2017-01-10T00:16:24.017Z,932.22
2017-01-10T00:17:34.444Z,932.26
2017-01-10T00:18:44.895Z,932.25
2017-01-10T00:19:55.323Z,932.27
2017-01-10T00:21:05.755Z,932.26
2017-01-10T00:22:16.445Z,932.27
2017-01-10T00:23:26.877Z,932.26
2017-01-10T00:24:37.304Z,932.26
2017-01-10T00:25:47.753Z,932.27
2017-01-10T00:26:58.182Z,932.22
2017-01-10T00:28:08.611Z,932.23
2017-01-10T00:29:33.586Z,932.21
2017-01-10T00:30:58.559Z,932.24
2017-01-10T00:32:08.986Z,932.23
2017-01-10T00:33:19.413Z,932.14
2017-01-10T00:34:29.835Z,932.17
2017-01-10T00:35:40.266Z,932.18
2017-01-10T00:36:50.692Z,932.16
2017-01-10T00:38:01.119Z,932.14
2017-01-10T00:39:11.540Z,932.13
2017-01-10T00:40:21.967Z,932.14
2017-01-10T00:41:32.391Z,932.03
2017-01-10T00:42:42.820Z,932.02
2017-01-10T00:43:53.239Z,932
2017-01-10T00:45:04.001Z,932.01
2017-01-10T00:46:14.470Z,932.02
2017-01-10T00:47:25.050Z,932.02
2017-01-10T00:48:35.509Z,932
2017-01-10T00:49:45.997Z,932.06
2017-01-10T00:50:57.294Z,932.1
2017-01-10T00:52:07.740Z,932.02
2017-01-10T00:53:18.148Z,932.1
2017-01-10T00:54:28.559Z,932.12
2017-01-10T00:55:38.974Z,932.07
2017-01-10T00:56:49.386Z,932.01
2017-01-10T00:57:59.798Z,932.08
2017-01-10T00:59:24.768Z,932.07
2017-01-10T01:00:35.187Z,932.08
2017-01-10T01:01:45.595Z,932.07
2017-01-10T01:02:56.003Z,932.1
2017-01-10T01:04:06.413Z,932.14
2017-01-10T01:05:16.823Z,932.17
2017-01-10T01:06:27.232Z,932.18
2017-01-10T01:07:37.850Z,932.21
2017-01-10T01:09:02.807Z,932.18
2017-01-10T01:10:13.218Z,932.19
2017-01-10T01:11:23.656Z,932.21
2017-01-10T01:12:34.076Z,932.23
2017-01-10T01:13:44.685Z,932.18
2017-01-10T01:14:55.098Z,932.21
2017-01-10T01:16:05.521Z,932.15
2017-01-10T01:17:16.048Z,932.16
2017-01-10T01:18:26.784Z,932.11
2017-01-10T01:19:37.308Z,932.09
2017-01-10T01:20:47.839Z,932.04
2017-01-10T01:21:58.368Z,932.05
2017-01-10T01:23:08.920Z,932.06
2017-01-10T01:24:19.651Z,932.04
2017-01-10T01:25:30.180Z,931.91
2017-01-10T01:26:55.233Z,932.02
2017-01-10T01:28:05.789Z,932
2017-01-10T01:29:31.142Z,932.05
2017-01-10T01:30:56.195Z,931.96
2017-01-10T01:32:06.724Z,932.04
2017-01-10T01:33:17.276Z,931.95
2017-01-10T01:34:27.809Z,931.93
2017-01-10T01:35:38.643Z,932.02
2017-01-10T01:36:49.171Z,932.01
2017-01-10T01:37:59.697Z,932.02
2017-01-10T01:39:10.254Z,931.99
2017-01-10T01:40:20.983Z,931.98
2017-01-10T01:41:31.509Z,932.01
2017-01-10T01:42:42.040Z,931.97
2017-01-10T01:43:52.567Z,932.04
2017-01-10T01:45:03.096Z,932.02
2017-01-10T01:46:13.624Z,932.06
2017-01-10T01:47:24.151Z,932.04
2017-01-10T01:48:34.679Z,932.02
2017-01-10T01:49:45.207Z,932.05
2017-01-10T01:50:56.316Z,932.02
2017-01-10T01:52:06.846Z,932.04
2017-01-10T01:53:17.375Z,932
2017-01-10T01:54:27.927Z,932.03
2017-01-10T01:55:38.465Z,932.02
2017-01-10T01:56:48.993Z,932.05
2017-01-10T01:57:59.827Z,932.01
2017-01-10T01:59:10.356Z,931.97
2017-01-10T02:00:20.887Z,931.93
2017-01-10T02:01:31.413Z,931.97
2017-01-10T02:02:41.939Z,931.91
2017-01-10T02:03:52.770Z,931.94
2017-01-10T02:05:03.302Z,931.92
2017-01-10T02:06:14.441Z,931.88
2017-01-10T02:07:24.967Z,931.91
2017-01-10T02:08:36.072Z,931.91
2017-01-10T02:09:46.606Z,931.92
2017-01-10T02:10:57.135Z,931.9
2017-01-10T02:12:07.661Z,931.89
2017-01-10T02:13:18.189Z,931.88
2017-01-10T02:14:28.719Z,931.88
2017-01-10T02:15:39.250Z,931.86
2017-01-10T02:16:49.787Z,931.84
2017-01-10T02:18:00.340Z,931.83
2017-01-10T02:19:10.867Z,931.85
2017-01-10T02:20:21.400Z,931.81
2017-01-10T02:21:32.228Z,931.79
2017-01-10T02:22:42.755Z,931.84
2017-01-10T02:23:53.286Z,931.76
2017-01-10T02:25:03.818Z,931.73
2017-01-10T02:26:14.342Z,931.75
2017-01-10T02:27:24.867Z,931.72
2017-01-10T02:28:35.406Z,931.71
2017-01-10T02:29:45.935Z,931.74
2017-01-10T02:30:56.463Z,931.74
2017-01-10T02:32:06.991Z,931.69
2017-01-10T02:33:32.245Z,931.72
2017-01-10T02:34:42.773Z,931.69
2017-01-10T02:35:53.306Z,931.68
2017-01-10T02:37:03.877Z,931.67
2017-01-10T02:38:14.405Z,931.66
2017-01-10T02:39:24.929Z,931.66
2017-01-10T02:40:35.437Z,931.66
2017-01-10T02:41:45.874Z,931.63
2017-01-10T02:42:56.312Z,931.67
2017-01-10T02:44:06.747Z,931.68
2017-01-10T02:45:17.389Z,931.66
2017-01-10T02:46:27.823Z,931.63
2017-01-10T02:47:38.262Z,931.59
2017-01-10T02:48:48.697Z,931.54
2017-01-10T02:49:59.133Z,931.54
2017-01-10T02:51:09.771Z,931.58
2017-01-10T02:52:20.209Z,931.55
2017-01-10T02:53:30.645Z,931.54
2017-01-10T02:54:41.083Z,931.52
2017-01-10T02:55:51.520Z,931.53
2017-01-10T02:57:01.991Z,931.47
2017-01-10T02:58:12.425Z,931.43
2017-01-10T02:59:22.865Z,931.34
2017-01-10T03:00:33.324Z,931.34
2017-01-10T03:01:43.761Z,931.37
2017-01-10T03:02:54.204Z,931.34
2017-01-10T03:04:04.668Z,931.27
2017-01-10T03:05:15.675Z,931.22
2017-01-10T03:06:26.111Z,931.23
2017-01-10T03:07:36.547Z,931.19
2017-01-10T03:08:46.985Z,931.17
2017-01-10T03:09:57.423Z,931.13
2017-01-10T03:11:07.857Z,931.08
2017-01-10T03:12:18.290Z,931.05
2017-01-10T03:13:28.743Z,931.05
2017-01-10T03:14:39.478Z,930.99
2017-01-10T03:15:49.913Z,930.99
2017-01-10T03:17:00.349Z,930.91
2017-01-10T03:18:10.788Z,930.91
2017-01-10T03:19:21.227Z,930.85
2017-01-10T03:21:56.680Z,930.77
2017-01-10T03:23:07.125Z,930.71
2017-01-10T03:24:17.565Z,930.69
2017-01-10T03:25:28.000Z,930.6
2017-01-10T03:26:38.739Z,930.57
2017-01-10T03:27:49.177Z,930.55
2017-01-10T03:28:59.617Z,930.55
2017-01-10T03:30:10.057Z,930.51
2017-01-10T03:31:20.694Z,930.5
2017-01-10T03:32:31.132Z,930.41
2017-01-10T03:33:41.570Z,930.42
2017-01-10T03:34:51.997Z,930.42
2017-01-10T03:36:02.314Z,930.34
2017-01-10T03:37:12.653Z,930.33
2017-01-10T03:38:22.972Z,930.32
2017-01-10T03:39:33.289Z,930.31
2017-01-10T03:40:58.177Z,930.28
2017-01-10T03:42:08.499Z,930.26
2017-01-10T03:43:18.814Z,930.31
2017-01-10T03:44:29.130Z,930.24
2017-01-10T03:45:39.449Z,930.21
2017-01-10T03:46:49.772Z,930.26
2017-01-10T03:48:00.091Z,930.26
2017-01-10T03:49:10.408Z,930.25
2017-01-10T03:50:20.727Z,930.24
2017-01-10T03:51:31.052Z,930.24
2017-01-10T03:52:41.368Z,930.2
2017-01-10T03:53:51.987Z,930.14
2017-01-10T03:55:16.882Z,930.15
2017-01-10T03:56:27.198Z,930.14
2017-01-10T03:57:37.514Z,930.11
2017-01-10T03:58:47.832Z,930.13
2017-01-10T03:59:58.450Z,930.14
2017-01-10T04:01:08.778Z,930.12
2017-01-10T04:02:19.097Z,930.14
2017-01-10T04:03:29.412Z,930.14
2017-01-10T04:04:39.727Z,930.12
2017-01-10T04:05:50.043Z,930.1
2017-01-10T04:07:00.364Z,930.1
2017-01-10T04:08:10.679Z,930.05
2017-01-10T04:09:35.565Z,930.06
2017-01-10T04:10:45.897Z,930.03
2017-01-10T04:11:56.307Z,930.02
2017-01-10T04:13:06.721Z,930.02
2017-01-10T04:14:17.129Z,930.01
2017-01-10T04:15:27.540Z,930.03
2017-01-10T04:16:37.974Z,930.02
2017-01-10T04:17:48.387Z,930.03
2017-01-10T04:18:58.798Z,930.02
2017-01-10T04:20:09.208Z,930.02
2017-01-10T04:21:19.616Z,929.98
2017-01-10T04:22:30.027Z,929.92
2017-01-10T04:23:40.435Z,929.88
2017-01-10T04:24:50.861Z,929.88
2017-01-10T04:26:01.268Z,929.85
2017-01-10T04:27:11.979Z,929.83
2017-01-10T04:28:22.394Z,929.8
2017-01-10T04:29:32.802Z,929.78
2017-01-10T04:30:43.211Z,929.71
2017-01-10T04:31:53.627Z,929.8
2017-01-10T04:33:04.341Z,929.76
2017-01-10T04:34:14.758Z,929.74
2017-01-10T04:35:25.166Z,929.71
2017-01-10T04:36:35.573Z,929.74
2017-01-10T04:37:45.979Z,929.7
2017-01-10T04:38:56.690Z,929.69
2017-01-10T04:40:07.104Z,929.65
2017-01-10T04:41:17.510Z,929.59
2017-01-10T04:42:27.917Z,929.56
2017-01-10T04:43:38.324Z,929.56
2017-01-10T04:44:48.747Z,929.56
2017-01-10T04:45:59.275Z,929.54
2017-01-10T04:47:09.803Z,929.52
2017-01-10T04:48:20.332Z,929.51
2017-01-10T04:49:30.864Z,929.5
2017-01-10T04:50:41.690Z,929.45
2017-01-10T04:51:52.221Z,929.45
2017-01-10T04:53:02.751Z,929.39
2017-01-10T04:54:13.276Z,929.4
2017-01-10T04:55:23.786Z,929.42
2017-01-10T04:56:34.524Z,929.4
2017-01-10T04:57:44.961Z,929.34
2017-01-10T04:58:55.396Z,929.29
2017-01-10T05:00:05.835Z,929.25
2017-01-10T05:01:16.274Z,929.22
2017-01-10T05:02:41.252Z,929.2
2017-01-10T05:03:51.721Z,929.15
2017-01-10T05:05:02.162Z,929.15
2017-01-10T05:06:12.596Z,929.1
2017-01-10T05:07:23.246Z,929.08
2017-01-10T05:08:33.683Z,929.05
2017-01-10T05:09:44.124Z,929.05
2017-01-10T05:10:54.585Z,929.05
2017-01-10T05:12:05.024Z,929.07
2017-01-10T05:13:15.473Z,929.09
2017-01-10T05:14:25.909Z,929.08
2017-01-10T05:17:01.329Z,929.08
2017-01-10T05:18:11.765Z,929.1
2017-01-10T05:19:22.410Z,929.09
2017-01-10T05:20:32.848Z,929.08
2017-01-10T05:21:43.282Z,929.05
2017-01-10T05:22:53.721Z,929.01
2017-01-10T05:24:04.156Z,929
2017-01-10T05:25:14.591Z,929
2017-01-10T05:26:25.026Z,928.98
2017-01-10T05:27:35.464Z,928.91
2017-01-10T05:28:45.897Z,928.91
2017-01-10T05:29:56.634Z,928.87
2017-01-10T05:31:07.083Z,928.85
2017-01-10T05:32:17.518Z,928.89
2017-01-10T05:33:27.966Z,928.82
2017-01-10T05:34:38.401Z,928.83
2017-01-10T05:35:48.839Z,928.85
2017-01-10T05:36:59.273Z,928.84
2017-01-10T05:38:09.711Z,928.8
2017-01-10T05:39:20.150Z,928.83
2017-01-10T05:40:30.586Z,928.86
2017-01-10T05:41:41.023Z,928.83
2017-01-10T05:42:51.456Z,928.85
2017-01-10T05:44:01.897Z,928.85
2017-01-10T05:45:12.335Z,928.86
2017-01-10T05:46:22.776Z,928.85
2017-01-10T05:47:33.534Z,928.81
2017-01-10T05:48:43.972Z,928.86
2017-01-10T05:49:54.408Z,928.81
2017-01-10T05:52:29.821Z,928.8
2017-01-10T05:53:40.251Z,928.84
2017-01-10T05:54:50.686Z,928.81
2017-01-10T05:56:01.116Z,928.8
2017-01-10T05:57:11.552Z,928.76
2017-01-10T05:58:21.988Z,928.76
2017-01-10T05:59:32.420Z,928.72
2017-01-10T06:00:42.854Z,928.68
2017-01-10T06:03:18.268Z,928.68
2017-01-10T06:04:29.274Z,928.64
2017-01-10T06:05:39.709Z,928.63
2017-01-10T06:06:50.149Z,928.62
2017-01-10T06:08:00.584Z,928.58
2017-01-10T06:09:11.219Z,928.58
2017-01-10T06:10:21.682Z,928.56
2017-01-10T06:11:32.118Z,928.55
2017-01-10T06:12:42.561Z,928.55
2017-01-10T06:13:53.002Z,928.49
2017-01-10T06:15:17.985Z,928.44
2017-01-10T06:16:28.417Z,928.47
2017-01-10T06:19:03.833Z,928.44
2017-01-10T06:20:14.270Z,928.4
2017-01-10T06:21:24.706Z,928.42
2017-01-10T06:22:35.137Z,928.35
2017-01-10T06:23:45.573Z,928.35
2017-01-10T06:24:56.038Z,928.34
2017-01-10T06:26:06.479Z,928.33
2017-01-10T06:27:16.915Z,928.33
2017-01-10T06:28:27.354Z,928.29
2017-01-10T06:29:37.775Z,928.35
2017-01-10T06:30:48.093Z,928.25
2017-01-10T06:31:58.608Z,928.33
2017-01-10T06:33:08.929Z,928.32
2017-01-10T06:34:19.251Z,928.36
2017-01-10T06:35:29.567Z,928.31
2017-01-10T06:36:39.885Z,928.32
2017-01-10T06:37:50.511Z,928.32
2017-01-10T06:39:00.829Z,928.37
2017-01-10T06:40:11.171Z,928.31
2017-01-10T06:41:21.490Z,928.34
2017-01-10T06:42:31.806Z,928.31
2017-01-10T06:43:42.420Z,928.33
2017-01-10T06:44:52.741Z,928.24
2017-01-10T06:46:03.057Z,928.27
2017-01-10T06:47:13.374Z,928.21
2017-01-10T06:48:24.252Z,928.23
2017-01-10T06:49:34.570Z,928.23
2017-01-10T06:50:44.886Z,928.21
2017-01-10T06:51:55.200Z,928.23
2017-01-10T06:53:05.514Z,928.23
2017-01-10T06:54:15.831Z,928.21
2017-01-10T06:55:26.148Z,928.21
2017-01-10T06:56:36.466Z,928.18
2017-01-10T06:57:46.781Z,928.15
2017-01-10T06:58:57.097Z,928.16
2017-01-10T07:00:07.414Z,928.14
2017-01-10T07:01:17.730Z,928.1
2017-01-10T07:02:28.062Z,928.11
2017-01-10T07:03:38.378Z,928.11
2017-01-10T07:04:48.729Z,928.08
2017-01-10T07:05:59.167Z,928.04
2017-01-10T07:07:09.607Z,928.07
2017-01-10T07:08:20.043Z,928.07
2017-01-10T07:09:30.502Z,928.06
2017-01-10T07:10:40.959Z,928.02
2017-01-10T07:11:51.487Z,927.98
2017-01-10T07:13:02.021Z,928.03
2017-01-10T07:14:12.548Z,928.02
2017-01-10T07:15:23.073Z,928.06
2017-01-10T07:16:33.598Z,928.02
2017-01-10T07:17:44.126Z,928.02
2017-01-10T07:18:54.656Z,928.03
2017-01-10T07:20:05.187Z,928.03
2017-01-10T07:21:15.712Z,928.01
2017-01-10T07:22:26.241Z,928.03
2017-01-10T07:23:36.800Z,928
2017-01-10T07:25:01.858Z,927.99
2017-01-10T07:26:12.387Z,927.97
2017-01-10T07:27:22.913Z,927.98
2017-01-10T07:28:47.968Z,928.01
2017-01-10T07:29:58.496Z,927.95
2017-01-10T07:31:09.221Z,927.94
2017-01-10T07:32:19.749Z,927.92
2017-01-10T07:33:30.281Z,927.91
2017-01-10T07:34:40.808Z,927.92
2017-01-10T07:35:51.559Z,927.89
2017-01-10T07:37:02.092Z,927.97
2017-01-10T07:38:12.618Z,927.94
2017-01-10T07:39:23.145Z,927.94
2017-01-10T07:40:33.670Z,927.93
2017-01-10T07:41:44.398Z,927.95
2017-01-10T07:42:54.923Z,927.95
2017-01-10T07:44:05.450Z,927.94
2017-01-10T07:45:15.982Z,927.99
2017-01-10T07:46:26.506Z,927.96
2017-01-10T07:47:51.759Z,927.99
2017-01-10T07:49:16.816Z,927.94
2017-01-10T07:50:27.342Z,928.02
2017-01-10T07:51:37.873Z,928
2017-01-10T07:52:48.401Z,927.97
2017-01-10T07:53:58.934Z,928.02
2017-01-10T07:55:09.462Z,927.99
2017-01-10T07:56:19.952Z,928.02
2017-01-10T07:57:30.392Z,928.02
2017-01-10T07:58:40.833Z,928.08
2017-01-10T07:59:51.290Z,928.12
2017-01-10T08:01:01.727Z,928.12
2017-01-10T08:02:12.161Z,928.13
2017-01-10T08:03:22.596Z,928.16
2017-01-10T08:04:33.034Z,928.1
2017-01-10T08:05:43.471Z,928.13
2017-01-10T08:06:53.906Z,928.14
2017-01-10T08:08:04.342Z,928.15
2017-01-10T08:09:14.777Z,928.2
2017-01-10T08:10:25.216Z,928.17
2017-01-10T08:11:35.646Z,928.23
2017-01-10T08:12:46.089Z,928.27
2017-01-10T08:13:56.442Z,928.32
2017-01-10T08:15:06.958Z,928.34
2017-01-10T08:16:17.276Z,928.38
2017-01-10T08:17:27.589Z,928.4
2017-01-10T08:18:37.905Z,928.45
2017-01-10T08:19:48.224Z,928.48
2017-01-10T08:20:58.744Z,928.51
2017-01-10T08:22:09.062Z,928.5
2017-01-10T08:23:19.386Z,928.49
2017-01-10T08:24:29.707Z,928.53
2017-01-10T08:25:40.033Z,928.53
2017-01-10T08:26:50.346Z,928.52
2017-01-10T08:28:00.660Z,928.54
2017-01-10T08:29:10.980Z,928.55
2017-01-10T08:30:21.295Z,928.56
2017-01-10T08:31:31.610Z,928.58
2017-01-10T08:32:42.228Z,928.63
2017-01-10T08:33:52.542Z,928.65
2017-01-10T08:35:02.860Z,928.66
2017-01-10T08:36:13.203Z,928.68
2017-01-10T08:37:23.518Z,928.66
2017-01-10T08:38:34.137Z,928.68
2017-01-10T08:39:44.452Z,928.63
2017-01-10T08:40:54.770Z,928.65
2017-01-10T08:42:05.090Z,928.69
2017-01-10T08:44:40.602Z,928.78
2017-01-10T08:45:50.922Z,928.76
2017-01-10T08:47:01.242Z,928.78
2017-01-10T08:48:11.563Z,928.77
2017-01-10T08:49:22.221Z,928.83
2017-01-10T08:50:32.659Z,928.8
2017-01-10T08:51:43.125Z,928.85
2017-01-10T08:52:53.564Z,928.8
2017-01-10T08:54:04.000Z,928.8
2017-01-10T08:55:14.438Z,928.8
2017-01-10T08:56:24.879Z,928.83
2017-01-10T08:57:35.315Z,928.89
2017-01-10T08:59:00.295Z,928.86
2017-01-10T09:00:10.731Z,928.91
2017-01-10T09:01:21.170Z,928.87
2017-01-10T09:02:31.605Z,928.92
2017-01-10T09:03:42.042Z,928.93
2017-01-10T09:04:52.483Z,928.96
2017-01-10T09:06:03.121Z,928.99
2017-01-10T09:07:13.561Z,929.06
2017-01-10T09:08:24.004Z,929.05
2017-01-10T09:09:34.450Z,929.09
2017-01-10T09:10:44.887Z,929.19
2017-01-10T09:11:55.627Z,929.21
2017-01-10T09:13:06.061Z,929.23
2017-01-10T09:14:16.500Z,929.28
2017-01-10T09:15:26.937Z,929.31
2017-01-10T09:16:37.372Z,929.29
2017-01-10T09:17:47.809Z,929.32
2017-01-10T09:18:58.245Z,929.38
2017-01-10T09:20:08.679Z,929.41
2017-01-10T09:21:19.115Z,929.41
2017-01-10T09:22:29.547Z,929.4
2017-01-10T09:23:39.970Z,929.44
2017-01-10T09:24:50.288Z,929.44
2017-01-10T09:26:00.606Z,929.43
2017-01-10T09:27:10.922Z,929.38
2017-01-10T09:28:21.241Z,929.39
2017-01-10T09:29:46.330Z,929.41
2017-01-10T09:30:56.647Z,929.43
2017-01-10T09:32:06.968Z,929.46
2017-01-10T09:33:17.289Z,929.51
2017-01-10T09:34:27.607Z,929.57
2017-01-10T09:35:37.925Z,929.59
2017-01-10T09:36:48.244Z,929.64
2017-01-10T09:37:58.570Z,929.62
2017-01-10T09:39:08.894Z,929.64
2017-01-10T09:40:19.213Z,929.69
2017-01-10T09:41:29.530Z,929.71
2017-01-10T09:42:54.415Z,929.77
2017-01-10T09:44:04.741Z,929.79
2017-01-10T09:45:15.624Z,929.85
2017-01-10T09:46:40.722Z,929.92
2017-01-10T09:47:51.040Z,929.9
2017-01-10T09:49:01.375Z,929.93
2017-01-10T09:50:11.692Z,929.93
2017-01-10T09:51:22.010Z,929.93
2017-01-10T09:52:32.323Z,929.94
2017-01-10T09:53:42.641Z,929.97
2017-01-10T09:54:52.985Z,929.98
2017-01-10T09:56:03.602Z,930
2017-01-10T09:57:13.919Z,930.05
2017-01-10T09:58:24.234Z,930.04
2017-01-10T09:59:34.552Z,930.1
2017-01-10T10:00:44.869Z,930.08
2017-01-10T10:01:55.188Z,930.04
2017-01-10T10:03:05.505Z,930.03
2017-01-10T10:04:15.823Z,929.95
2017-01-10T10:05:26.140Z,929.98
2017-01-10T10:06:36.462Z,929.92
2017-01-10T10:08:01.348Z,929.97
2017-01-10T10:09:11.669Z,929.99
2017-01-10T10:10:21.985Z,929.98
2017-01-10T10:11:32.327Z,930
2017-01-10T10:12:57.233Z,930.05
2017-01-10T10:14:07.855Z,930.06
2017-01-10T10:15:18.182Z,930.09
2017-01-10T10:16:28.499Z,930.03
2017-01-10T10:17:38.817Z,930.07
2017-01-10T10:18:49.132Z,930.06
2017-01-10T10:19:59.452Z,930.11
2017-01-10T10:21:09.770Z,930.07
2017-01-10T10:22:20.087Z,930.06
2017-01-10T10:23:30.402Z,930.12
2017-01-10T10:24:41.026Z,930.14
2017-01-10T10:27:16.227Z,930.09
2017-01-10T10:28:26.546Z,930.17
2017-01-10T10:29:36.864Z,930.23
2017-01-10T10:30:47.483Z,930.22
2017-01-10T10:31:57.802Z,930.24
2017-01-10T10:33:08.135Z,930.22
2017-01-10T10:34:18.467Z,930.24
2017-01-10T10:35:29.203Z,930.28
2017-01-10T10:36:39.642Z,930.28
2017-01-10T10:37:50.081Z,930.3
2017-01-10T10:39:00.520Z,930.24
2017-01-10T10:40:10.959Z,930.3
2017-01-10T10:41:21.393Z,930.27
2017-01-10T10:42:31.830Z,930.27
2017-01-10T10:43:42.264Z,930.22
2017-01-10T10:44:53.272Z,930.22
2017-01-10T10:46:03.710Z,930.21
2017-01-10T10:47:14.465Z,930.2
2017-01-10T10:48:24.904Z,930.21
2017-01-10T10:49:35.339Z,930.18
2017-01-10T10:50:45.776Z,930.14
2017-01-10T10:51:56.211Z,930.05
2017-01-10T10:53:21.190Z,930.02
2017-01-10T10:54:46.182Z,930.05
2017-01-10T10:55:56.637Z,930.1
2017-01-10T10:57:07.166Z,930.09
2017-01-10T10:58:17.992Z,930.14
2017-01-10T10:59:28.524Z,930.16
2017-01-10T11:00:39.067Z,930.17
2017-01-10T11:01:49.595Z,930.21
2017-01-10T11:03:14.850Z,930.2
2017-01-10T11:04:25.375Z,930.22
2017-01-10T11:05:35.901Z,930.23
2017-01-10T11:07:00.957Z,930.16
2017-01-10T11:08:11.489Z,930.18
2017-01-10T11:09:22.467Z,930.17
2017-01-10T11:10:33.001Z,930.19
2017-01-10T11:11:43.530Z,930.18
2017-01-10T11:12:54.066Z,930.23
2017-01-10T11:14:04.597Z,930.19
2017-01-10T11:15:15.127Z,930.18
2017-01-10T11:16:25.654Z,930.15
2017-01-10T11:18:05.238Z,930.25
2017-01-10T11:19:15.765Z,930.24
2017-01-10T11:20:26.296Z,930.25
2017-01-10T11:21:36.829Z,930.32
2017-01-10T11:22:47.388Z,930.3
2017-01-10T11:23:57.924Z,930.36
2017-01-10T11:25:08.453Z,930.38
2017-01-10T11:26:18.981Z,930.36
2017-01-10T11:27:29.508Z,930.28
2017-01-10T11:28:40.039Z,930.4
2017-01-10T11:29:50.571Z,930.4
2017-01-10T11:31:01.303Z,930.38
2017-01-10T11:32:11.833Z,930.41
2017-01-10T11:33:22.364Z,930.4
2017-01-10T11:34:32.892Z,930.45
2017-01-10T11:35:57.944Z,930.45
2017-01-10T11:37:08.779Z,930.45
2017-01-10T11:38:19.310Z,930.46
2017-01-10T11:39:29.835Z,930.48
2017-01-10T11:40:40.383Z,930.53
2017-01-10T11:41:50.822Z,930.49
2017-01-10T11:43:01.259Z,930.52
2017-01-10T11:44:11.700Z,930.49
2017-01-10T11:45:22.158Z,930.49
2017-01-10T11:46:47.137Z,930.51
2017-01-10T11:47:57.571Z,930.5
2017-01-10T11:49:22.558Z,930.51
2017-01-10T11:50:33.187Z,930.52
2017-01-10T11:51:58.366Z,930.57
2017-01-10T11:53:08.803Z,930.5
2017-01-10T11:54:19.240Z,930.53
2017-01-10T11:55:29.680Z,930.53
2017-01-10T11:56:40.114Z,930.58
2017-01-10T11:58:05.362Z,930.59
2017-01-10T11:59:15.812Z,930.64
2017-01-10T12:00:26.247Z,930.61
2017-01-10T12:01:36.684Z,930.61
2017-01-10T12:03:01.667Z,930.57
2017-01-10T12:04:12.106Z,930.58
2017-01-10T12:05:23.124Z,930.55
2017-01-10T12:06:33.564Z,930.49
2017-01-10T12:07:44.572Z,930.51
2017-01-10T12:08:55.010Z,930.47
2017-01-10T12:11:30.426Z,930.42
2017-01-10T12:12:40.870Z,930.42
2017-01-10T12:13:51.307Z,930.44
2017-01-10T12:15:01.744Z,930.47
2017-01-10T12:16:12.178Z,930.44
2017-01-10T12:17:22.612Z,930.46
2017-01-10T12:18:33.045Z,930.44
2017-01-10T12:19:43.490Z,930.41
2017-01-10T12:20:53.925Z,930.39
2017-01-10T12:22:04.361Z,930.4
2017-01-10T12:23:14.803Z,930.36
2017-01-10T12:24:25.244Z,930.38
2017-01-10T12:25:35.878Z,930.31
2017-01-10T12:26:46.315Z,930.29
2017-01-10T12:27:56.760Z,930.29
2017-01-10T12:29:07.198Z,930.26
2017-01-10T12:30:17.636Z,930.2
2017-01-10T12:31:29.506Z,930.21
2017-01-10T12:32:54.664Z,930.2
2017-01-10T12:34:05.046Z,930.17
2017-01-10T12:35:15.486Z,930.16
2017-01-10T12:36:25.921Z,930.16
2017-01-10T12:37:36.608Z,930.13
2017-01-10T12:38:47.048Z,930.11
2017-01-10T12:39:57.484Z,930.16
2017-01-10T12:41:07.922Z,930.13
2017-01-10T12:42:18.366Z,930.17
2017-01-10T12:43:28.804Z,930.14
2017-01-10T12:44:39.243Z,930.15
2017-01-10T12:45:49.679Z,930.15
2017-01-10T12:47:00.116Z,930.14
2017-01-10T12:48:11.450Z,930.18
2017-01-10T12:49:21.887Z,930.16
2017-01-10T12:50:32.323Z,930.16
2017-01-10T12:51:42.762Z,930.2
2017-01-10T12:52:53.207Z,930.21
2017-01-10T12:54:03.853Z,930.22
2017-01-10T12:55:14.292Z,930.18
2017-01-10T12:56:24.731Z,930.21
2017-01-10T12:57:35.172Z,930.16
2017-01-10T12:58:45.616Z,930.19
2017-01-10T12:59:56.056Z,930.25
2017-01-10T13:01:06.498Z,930.22
2017-01-10T13:02:16.941Z,930.22
2017-01-10T13:03:27.383Z,930.17
2017-01-10T13:04:37.822Z,930.2
2017-01-10T13:05:48.562Z,930.14
2017-01-10T13:06:59.001Z,930.12
2017-01-10T13:08:09.440Z,930.11
2017-01-10T13:09:19.882Z,930.11
2017-01-10T13:10:30.318Z,930.08
2017-01-10T13:11:40.957Z,930.07
2017-01-10T13:12:51.396Z,930.03
2017-01-10T13:14:01.840Z,929.94
2017-01-10T13:15:12.285Z,929.97
2017-01-10T13:16:22.726Z,929.99
2017-01-10T13:17:33.170Z,930.04
2017-01-10T13:18:43.605Z,929.98
2017-01-10T13:19:54.045Z,929.99
2017-01-10T13:21:04.486Z,930.02
2017-01-10T13:22:14.931Z,930.02
2017-01-10T13:23:25.567Z,930.01
2017-01-10T13:24:36.007Z,930.07
2017-01-10T13:25:46.447Z,930.02
2017-01-10T13:26:56.889Z,930.02
2017-01-10T13:28:07.329Z,929.99
2017-01-10T13:29:17.767Z,929.97
2017-01-10T13:30:28.208Z,930
2017-01-10T13:31:38.654Z,929.96
2017-01-10T13:32:49.093Z,929.98
2017-01-10T13:33:59.531Z,929.94
2017-01-10T13:35:09.970Z,929.93
2017-01-10T13:36:20.406Z,929.96
2017-01-10T13:37:30.843Z,929.9
2017-01-10T13:38:41.287Z,929.94
2017-01-10T13:39:51.722Z,929.9
2017-01-10T13:41:02.361Z,929.78
2017-01-10T13:42:12.814Z,929.9
2017-01-10T13:43:23.260Z,929.94
2017-01-10T13:44:33.698Z,929.98
2017-01-10T13:45:44.142Z,929.97
2017-01-10T13:47:09.354Z,929.99
2017-01-10T13:48:19.794Z,929.99
2017-01-10T13:49:30.231Z,929.98
2017-01-10T13:50:55.215Z,929.99
2017-01-10T13:52:05.854Z,929.95
2017-01-10T13:53:16.293Z,929.97
2017-01-10T13:54:26.736Z,929.91
2017-01-10T13:55:37.175Z,929.88
2017-01-10T13:56:47.618Z,929.95
2017-01-10T13:57:58.278Z,929.92
2017-01-10T13:59:08.716Z,929.85
2017-01-10T14:00:19.169Z,929.87
2017-01-10T14:01:29.606Z,929.89
2017-01-10T14:02:40.627Z,929.87
2017-01-10T14:03:51.065Z,929.88
2017-01-10T14:05:01.516Z,929.84
2017-01-10T14:06:11.964Z,929.9
2017-01-10T14:07:22.404Z,929.91
2017-01-10T14:08:32.841Z,929.91
2017-01-10T14:09:43.280Z,929.86
2017-01-10T14:10:53.723Z,929.86
2017-01-10T14:12:04.164Z,929.84
2017-01-10T14:13:29.155Z,929.88
2017-01-10T14:14:39.589Z,929.88
2017-01-10T14:15:50.029Z,929.9
2017-01-10T14:17:00.470Z,929.87
2017-01-10T14:18:10.910Z,929.91
2017-01-10T14:19:21.353Z,929.85
2017-01-10T14:20:32.096Z,929.94
2017-01-10T14:21:42.540Z,929.89
2017-01-10T14:23:07.529Z,929.88
2017-01-10T14:24:17.964Z,929.85
2017-01-10T14:25:28.404Z,929.85
2017-01-10T14:26:39.144Z,929.85
2017-01-10T14:27:49.585Z,929.91
2017-01-10T14:29:00.023Z,929.97
2017-01-10T14:30:10.465Z,929.91
2017-01-10T14:31:20.906Z,929.91
2017-01-10T14:32:31.342Z,929.87
2017-01-10T14:33:41.778Z,929.85
2017-01-10T14:34:52.220Z,929.85
2017-01-10T14:36:02.662Z,929.8
2017-01-10T14:37:13.402Z,929.8
2017-01-10T14:39:48.834Z,929.82
2017-01-10T14:40:59.277Z,929.79
2017-01-10T14:42:09.724Z,929.82
2017-01-10T14:43:20.463Z,929.82
2017-01-10T14:44:30.926Z,929.84
2017-01-10T14:45:41.368Z,929.8
2017-01-10T14:46:51.808Z,929.81
2017-01-10T14:48:02.247Z,929.81
2017-01-10T14:49:27.237Z,929.79
2017-01-10T14:50:52.230Z,929.79
2017-01-10T14:52:03.239Z,929.85
2017-01-10T14:53:13.986Z,929.8
2017-01-10T14:54:24.429Z,929.79
2017-01-10T14:55:34.867Z,929.76
2017-01-10T14:56:45.309Z,929.71
2017-01-10T14:57:55.748Z,929.73
2017-01-10T14:59:06.192Z,929.78
2017-01-10T15:00:31.185Z,929.78
2017-01-10T15:01:41.634Z,929.79
2017-01-10T15:02:52.075Z,929.79
2017-01-10T15:04:02.522Z,929.81
2017-01-10T15:05:12.966Z,929.81
2017-01-10T15:06:23.407Z,929.8